sensor_id;sensor_type;location;lat;lon;timestamp;temperature;humidity
1123;DHT22;548;48.778;9.252;2022-10-31T02:58:01;11.90;99.90
1123;DHT22;548;48.778;9.252;2022-10-31T03:00:30;11.60;99.90
1123;DHT22;548;48.778;9.252;2022-10-31T03:03:03;11.50;99.90
1123;DHT22;548;48.778;9.252;2022-10-31T03:05:45;11.50;99.90
1123;DHT22;548;48.778;9.252;2022-10-31T03:08:21;11.50;99.90
1123;DHT22;548;48.778;9.252;2022-10-31T03:10:53;11.50;99.90
1123;DHT22;548;48.778;9.252;2022-10-31T03:13:27;11.50;99.90
1123;DHT22;548;48.778;9.252;2022-10-31T03:16:05;11.40;99.90
1123;DHT22;548;48.778;9.252;2022-10-31T03:18:37;11.40;99.90
1123;DHT22;548;48.778;9.252;2022-10-31T03:21:08;11.40;99.90
1123;DHT22;548;48.778;9.252;2022-10-31T03:23:37;11.30;99.90
1123;DHT22;548;48.778;9.252;2022-10-31T03:26:07;11.30;99.90
1123;DHT22;548;48.778;9.252;2022-10-31T03:28:38;11.30;99.90
1123;DHT22;548;48.778;9.252;2022-10-31T03:31:09;11.20;99.90
1123;DHT22;548;48.778;9.252;2022-10-31T03:33:37;11.20;99.90
1123;DHT22;548;48.778;9.252;2022-10-31T03:36:08;11.20;99.90
1123;DHT22;548;48.778;9.252;2022-10-31T03:38:38;11.20;99.90
1123;DHT22;548;48.778;9.252;2022-10-31T03:41:11;11.10;99.90
1123;DHT22;548;48.778;9.252;2022-10-31T03:43:45;11.10;99.90
1123;DHT22;548;48.778;9.252;2022-10-31T03:46:14;11.10;99.90
1123;DHT22;548;48.778;9.252;2022-10-31T03:48:41;11.10;99.90
1123;DHT22;548;48.778;9.252;2022-10-31T03:51:14;11.10;99.90
1123;DHT22;548;48.778;9.252;2022-10-31T03:53:47;11.10;99.90
1123;DHT22;548;48.778;9.252;2022-10-31T03:56:22;11.10;99.90
1123;DHT22;548;48.778;9.252;2022-10-31T03:58:57;11.00;99.90
1123;DHT22;548;48.778;9.252;2022-10-31T04:01:26;11.10;99.90
1123;DHT22;548;48.778;9.252;2022-10-31T04:03:56;11.00;99.90
1123;DHT22;548;48.778;9.252;2022-10-31T04:06:24;11.00;99.90
1123;DHT22;548;48.778;9.252;2022-10-31T04:08:56;11.00;99.90
1123;DHT22;548;48.778;9.252;2022-10-31T04:11:27;11.00;99.90
1123;DHT22;548;48.778;9.252;2022-10-31T04:13:57;11.00;99.90
1123;DHT22;548;48.778;9.252;2022-10-31T04:16:26;11.00;99.90
1123;DHT22;548;48.778;9.252;2022-10-31T04:18:53;11.00;99.90
1123;DHT22;548;48.778;9.252;2022-10-31T04:21:26;11.00;99.90
1123;DHT22;548;48.778;9.252;2022-10-31T04:23:53;11.00;99.90
1123;DHT22;548;48.778;9.252;2022-10-31T04:26:20;11.00;99.90
1123;DHT22;548;48.778;9.252;2022-10-31T04:28:47;10.90;99.90
1123;DHT22;548;48.778;9.252;2022-10-31T04:31:15;10.90;99.90
1123;DHT22;548;48.778;9.252;2022-10-31T04:33:42;10.90;99.90
1123;DHT22;548;48.778;9.252;2022-10-31T04:36:09;10.90;99.90
1123;DHT22;548;48.778;9.252;2022-10-31T04:38:36;10.90;99.90
1123;DHT22;548;48.778;9.252;2022-10-31T04:41:03;10.80;99.90
1123;DHT22;548;48.778;9.252;2022-10-31T04:43:30;10.90;99.90
1123;DHT22;548;48.778;9.252;2022-10-31T04:45:56;10.80;99.90
1123;DHT22;548;48.778;9.252;2022-10-31T04:48:24;10.80;99.90
1123;DHT22;548;48.778;9.252;2022-10-31T04:50:51;10.80;99.90
1123;DHT22;548;48.778;9.252;2022-10-31T04:53:18;10.80;99.90
1123;DHT22;548;48.778;9.252;2022-10-31T04:55:44;10.80;99.90
1123;DHT22;548;48.778;9.252;2022-10-31T04:58:11;10.80;99.90
1123;DHT22;548;48.778;9.252;2022-10-31T05:00:38;10.80;99.90
1123;DHT22;548;48.778;9.252;2022-10-31T05:03:05;10.70;99.90
1123;DHT22;548;48.778;9.252;2022-10-31T05:05:33;10.70;99.90
1123;DHT22;548;48.778;9.252;2022-10-31T05:08:00;10.70;99.90
1123;DHT22;548;48.778;9.252;2022-10-31T05:10:28;10.70;99.90
1123;DHT22;548;48.778;9.252;2022-10-31T05:12:57;10.60;99.90
1123;DHT22;548;48.778;9.252;2022-10-31T05:15:25;10.60;99.90
1123;DHT22;548;48.778;9.252;2022-10-31T05:17:53;10.60;99.90
1123;DHT22;548;48.778;9.252;2022-10-31T05:20:21;10.60;99.90
1123;DHT22;548;48.778;9.252;2022-10-31T05:22:51;10.60;99.90
1123;DHT22;548;48.778;9.252;2022-10-31T05:25:20;10.50;99.90
1123;DHT22;548;48.778;9.252;2022-10-31T05:27:48;10.50;99.90
1123;DHT22;548;48.778;9.252;2022-10-31T05:30:17;10.50;99.90
1123;DHT22;548;48.778;9.252;2022-10-31T05:32:45;10.50;99.90
1123;DHT22;548;48.778;9.252;2022-10-31T05:35:14;10.50;99.90
1123;DHT22;548;48.778;9.252;2022-10-31T05:37:41;10.60;99.90
1123;DHT22;548;48.778;9.252;2022-10-31T05:40:12;10.60;99.90
1123;DHT22;548;48.778;9.252;2022-10-31T05:42:39;10.50;99.90
1123;DHT22;548;48.778;9.252;2022-10-31T05:45:08;10.50;99.90
1123;DHT22;548;48.778;9.252;2022-10-31T05:47:35;10.50;99.90
1123;DHT22;548;48.778;9.252;2022-10-31T05:50:02;10.50;99.90
1123;DHT22;548;48.778;9.252;2022-10-31T05:52:29;10.50;99.90
1123;DHT22;548;48.778;9.252;2022-10-31T05:54:56;10.50;99.90
1123;DHT22;548;48.778;9.252;2022-10-31T05:57:24;10.50;99.90
1123;DHT22;548;48.778;9.252;2022-10-31T05:59:51;10.50;99.90
1123;DHT22;548;48.778;9.252;2022-10-31T06:02:19;10.30;99.90
1123;DHT22;548;48.778;9.252;2022-10-31T06:04:45;10.40;99.90
1123;DHT22;548;48.778;9.252;2022-10-31T06:07:12;10.40;99.90
1123;DHT22;548;48.778;9.252;2022-10-31T06:09:39;10.40;99.90
1123;DHT22;548;48.778;9.252;2022-10-31T06:12:06;10.40;99.90
1123;DHT22;548;48.778;9.252;2022-10-31T06:14:34;10.40;99.90
1123;DHT22;548;48.778;9.252;2022-10-31T06:17:00;10.40;99.90
1123;DHT22;548;48.778;9.252;2022-10-31T06:19:27;10.40;99.90
1123;DHT22;548;48.778;9.252;2022-10-31T06:21:54;10.40;99.90
1123;DHT22;548;48.778;9.252;2022-10-31T06:24:20;10.40;99.90
1123;DHT22;548;48.778;9.252;2022-10-31T06:26:47;10.40;99.90
1123;DHT22;548;48.778;9.252;2022-10-31T06:29:14;10.40;99.90
1123;DHT22;548;48.778;9.252;2022-10-31T06:31:42;10.50;99.90
1123;DHT22;548;48.778;9.252;2022-10-31T06:34:09;10.50;99.90
1123;DHT22;548;48.778;9.252;2022-10-31T06:36:35;10.50;99.90
1123;DHT22;548;48.778;9.252;2022-10-31T06:39:02;10.60;99.90
1123;DHT22;548;48.778;9.252;2022-10-31T06:41:29;10.60;99.90
1123;DHT22;548;48.778;9.252;2022-10-31T06:43:56;10.60;99.90
1123;DHT22;548;48.778;9.252;2022-10-31T06:46:22;10.70;99.90
1123;DHT22;548;48.778;9.252;2022-10-31T06:48:50;10.80;99.90
1123;DHT22;548;48.778;9.252;2022-10-31T06:51:17;11.00;99.90
1123;DHT22;548;48.778;9.252;2022-10-31T06:53:44;11.20;99.90
1123;DHT22;548;48.778;9.252;2022-10-31T06:56:11;11.30;99.90
1123;DHT22;548;48.778;9.252;2022-10-31T06:58:37;11.50;99.90
1123;DHT22;548;48.778;9.252;2022-10-31T07:01:04;11.50;99.90
1123;DHT22;548;48.778;9.252;2022-10-31T07:03:31;11.40;99.90
1123;DHT22;548;48.778;9.252;2022-10-31T07:05:59;11.30;99.90
1123;DHT22;548;48.778;9.252;2022-10-31T07:08:26;11.30;99.90
1123;DHT22;548;48.778;9.252;2022-10-31T07:10:54;11.30;99.90
1123;DHT22;548;48.778;9.252;2022-10-31T07:13:21;11.30;99.90
1123;DHT22;548;48.778;9.252;2022-10-31T07:15:51;11.40;99.90
1123;DHT22;548;48.778;9.252;2022-10-31T07:18:19;11.50;99.90
1123;DHT22;548;48.778;9.252;2022-10-31T07:20:46;11.60;99.90
1123;DHT22;548;48.778;9.252;2022-10-31T07:23:14;11.80;99.90
1123;DHT22;548;48.778;9.252;2022-10-31T07:25:41;11.80;99.90
1123;DHT22;548;48.778;9.252;2022-10-31T07:28:09;11.80;99.90
1123;DHT22;548;48.778;9.252;2022-10-31T07:30:36;11.80;99.90
1123;DHT22;548;48.778;9.252;2022-10-31T07:33:03;11.80;99.90
1123;DHT22;548;48.778;9.252;2022-10-31T07:35:31;11.70;99.90
1123;DHT22;548;48.778;9.252;2022-10-31T07:38:05;11.70;99.90
1123;DHT22;548;48.778;9.252;2022-10-31T07:40:34;11.60;99.90
1123;DHT22;548;48.778;9.252;2022-10-31T07:43:00;11.70;99.90
1123;DHT22;548;48.778;9.252;2022-10-31T07:45:27;11.80;99.90
1123;DHT22;548;48.778;9.252;2022-10-31T07:47:54;11.90;99.90
1123;DHT22;548;48.778;9.252;2022-10-31T07:50:23;12.10;99.90
1123;DHT22;548;48.778;9.252;2022-10-31T07:52:58;12.30;99.90
1123;DHT22;548;48.778;9.252;2022-10-31T07:55:25;12.40;99.90
1123;DHT22;548;48.778;9.252;2022-10-31T07:57:57;12.60;99.90
1123;DHT22;548;48.778;9.252;2022-10-31T08:00:24;12.60;99.90
1123;DHT22;548;48.778;9.252;2022-10-31T08:02:57;12.50;99.90
1123;DHT22;548;48.778;9.252;2022-10-31T08:05:24;12.50;99.90
1123;DHT22;548;48.778;9.252;2022-10-31T08:07:50;12.60;99.90
1123;DHT22;548;48.778;9.252;2022-10-31T08:10:17;12.60;99.90
1123;DHT22;548;48.778;9.252;2022-10-31T08:12:44;12.70;99.90
1123;DHT22;548;48.778;9.252;2022-10-31T08:15:12;12.80;99.90
1123;DHT22;548;48.778;9.252;2022-10-31T08:17:39;12.90;99.90
1123;DHT22;548;48.778;9.252;2022-10-31T08:20:07;13.20;99.90
1123;DHT22;548;48.778;9.252;2022-10-31T08:22:34;13.30;99.90
1123;DHT22;548;48.778;9.252;2022-10-31T08:25:01;13.30;99.90
1123;DHT22;548;48.778;9.252;2022-10-31T08:27:28;13.30;99.90
1123;DHT22;548;48.778;9.252;2022-10-31T08:29:54;13.40;99.90
1123;DHT22;548;48.778;9.252;2022-10-31T08:32:22;13.40;99.90
1123;DHT22;548;48.778;9.252;2022-10-31T08:34:50;13.60;99.90
1123;DHT22;548;48.778;9.252;2022-10-31T08:37:16;13.80;99.90
1123;DHT22;548;48.778;9.252;2022-10-31T08:39:45;13.80;99.90
1123;DHT22;548;48.778;9.252;2022-10-31T08:42:12;13.90;99.90
1123;DHT22;548;48.778;9.252;2022-10-31T08:44:39;14.00;99.90
1123;DHT22;548;48.778;9.252;2022-10-31T08:47:05;14.10;99.90
1123;DHT22;548;48.778;9.252;2022-10-31T08:49:33;14.20;99.90
1123;DHT22;548;48.778;9.252;2022-10-31T08:52:00;14.40;99.90
1123;DHT22;548;48.778;9.252;2022-10-31T08:54:27;14.50;99.90
1123;DHT22;548;48.778;9.252;2022-10-31T08:56:54;14.60;99.90
1123;DHT22;548;48.778;9.252;2022-10-31T08:59:21;14.70;99.90
1123;DHT22;548;48.778;9.252;2022-10-31T09:01:48;14.70;99.90
1123;DHT22;548;48.778;9.252;2022-10-31T09:04:15;14.90;99.90
1123;DHT22;548;48.778;9.252;2022-10-31T09:06:43;15.00;99.90
1123;DHT22;548;48.778;9.252;2022-10-31T09:09:10;15.20;99.90
1123;DHT22;548;48.778;9.252;2022-10-31T09:11:36;15.20;99.90
1123;DHT22;548;48.778;9.252;2022-10-31T09:14:03;15.20;99.90
1123;DHT22;548;48.778;9.252;2022-10-31T09:16:30;15.20;99.90
1123;DHT22;548;48.778;9.252;2022-10-31T09:18:57;15.20;99.90
1123;DHT22;548;48.778;9.252;2022-10-31T09:21:23;15.30;99.90
1123;DHT22;548;48.778;9.252;2022-10-31T09:23:51;15.20;99.90
1123;DHT22;548;48.778;9.252;2022-10-31T09:26:19;15.10;99.90
1123;DHT22;548;48.778;9.252;2022-10-31T09:28:46;15.20;99.90
1123;DHT22;548;48.778;9.252;2022-10-31T09:31:12;15.30;99.90
1123;DHT22;548;48.778;9.252;2022-10-31T09:33:39;15.50;99.90
1123;DHT22;548;48.778;9.252;2022-10-31T09:36:07;15.70;99.90
1123;DHT22;548;48.778;9.252;2022-10-31T09:38:34;15.80;99.90
1123;DHT22;548;48.778;9.252;2022-10-31T09:41:07;15.70;99.90
1123;DHT22;548;48.778;9.252;2022-10-31T09:43:46;15.50;99.90
1123;DHT22;548;48.778;9.252;2022-10-31T09:46:23;15.50;99.90
1123;DHT22;548;48.778;9.252;2022-10-31T09:51:49;15.50;99.90
1123;DHT22;548;48.778;9.252;2022-10-31T09:54:20;15.60;99.90
1123;DHT22;548;48.778;9.252;2022-10-31T09:56:50;15.80;99.90
1123;DHT22;548;48.778;9.252;2022-10-31T09:59:23;15.90;99.90
1123;DHT22;548;48.778;9.252;2022-10-31T10:01:54;16.10;99.90
1123;DHT22;548;48.778;9.252;2022-10-31T10:04:32;16.20;99.90
1123;DHT22;548;48.778;9.252;2022-10-31T10:07:02;16.30;99.90
1123;DHT22;548;48.778;9.252;2022-10-31T10:09:30;16.20;99.90
1123;DHT22;548;48.778;9.252;2022-10-31T10:12:09;16.30;99.90
1123;DHT22;548;48.778;9.252;2022-10-31T10:14:51;16.50;99.90
1123;DHT22;548;48.778;9.252;2022-10-31T10:17:31;16.70;99.90
1123;DHT22;548;48.778;9.252;2022-10-31T10:20:16;16.90;99.90
1123;DHT22;548;48.778;9.252;2022-10-31T10:22:50;17.10;99.90
1123;DHT22;548;48.778;9.252;2022-10-31T10:25:22;17.10;99.90
1123;DHT22;548;48.778;9.252;2022-10-31T10:27:59;17.30;99.90
1123;DHT22;548;48.778;9.252;2022-10-31T10:30:33;17.50;99.90
1123;DHT22;548;48.778;9.252;2022-10-31T10:33:08;17.80;99.90
1123;DHT22;548;48.778;9.252;2022-10-31T10:35:41;17.80;99.90
1123;DHT22;548;48.778;9.252;2022-10-31T10:38:15;17.90;99.90
1123;DHT22;548;48.778;9.252;2022-10-31T10:40:42;17.60;99.90
1123;DHT22;548;48.778;9.252;2022-10-31T10:43:23;17.60;99.90
1123;DHT22;548;48.778;9.252;2022-10-31T10:46:08;17.70;99.90
1123;DHT22;548;48.778;9.252;2022-10-31T10:49:00;17.90;99.90
1123;DHT22;548;48.778;9.252;2022-10-31T10:51:38;17.90;99.90
1123;DHT22;548;48.778;9.252;2022-10-31T10:54:17;17.70;99.90
1123;DHT22;548;48.778;9.252;2022-10-31T10:56:55;17.70;99.90
1123;DHT22;548;48.778;9.252;2022-10-31T10:59:25;17.70;99.90
1123;DHT22;548;48.778;9.252;2022-10-31T11:01:52;17.50;99.90
1123;DHT22;548;48.778;9.252;2022-10-31T11:04:30;17.50;99.90
1123;DHT22;548;48.778;9.252;2022-10-31T11:07:03;17.60;99.90
1123;DHT22;548;48.778;9.252;2022-10-31T11:09:30;17.70;99.90
1123;DHT22;548;48.778;9.252;2022-10-31T11:11:57;17.70;99.90
1123;DHT22;548;48.778;9.252;2022-10-31T11:14:26;17.80;99.90
1123;DHT22;548;48.778;9.252;2022-10-31T11:16:56;17.80;99.90
1123;DHT22;548;48.778;9.252;2022-10-31T11:19:33;17.70;99.90
1123;DHT22;548;48.778;9.252;2022-10-31T11:22:06;17.60;99.90
1123;DHT22;548;48.778;9.252;2022-10-31T11:24:38;17.90;99.90
1123;DHT22;548;48.778;9.252;2022-10-31T11:27:13;18.40;99.90
1123;DHT22;548;48.778;9.252;2022-10-31T11:29:41;18.70;99.90
1123;DHT22;548;48.778;9.252;2022-10-31T11:32:17;18.90;99.90
1123;DHT22;548;48.778;9.252;2022-10-31T11:34:47;19.20;99.90
1123;DHT22;548;48.778;9.252;2022-10-31T11:37:17;19.60;99.90
1123;DHT22;548;48.778;9.252;2022-10-31T11:39:46;19.70;99.90
1123;DHT22;548;48.778;9.252;2022-10-31T11:42:20;19.40;99.90
1123;DHT22;548;48.778;9.252;2022-10-31T11:44:49;19.40;99.90
1123;DHT22;548;48.778;9.252;2022-10-31T11:47:17;19.40;99.90
1123;DHT22;548;48.778;9.252;2022-10-31T11:49:48;19.60;99.90
1123;DHT22;548;48.778;9.252;2022-10-31T11:52:18;19.80;99.90
1123;DHT22;548;48.778;9.252;2022-10-31T11:54:48;19.70;99.90
1123;DHT22;548;48.778;9.252;2022-10-31T11:57:24;20.00;99.90
1123;DHT22;548;48.778;9.252;2022-10-31T11:59:54;20.20;99.90
1123;DHT22;548;48.778;9.252;2022-10-31T12:02:21;20.20;99.90
1123;DHT22;548;48.778;9.252;2022-10-31T12:04:52;20.30;99.90
1123;DHT22;548;48.778;9.252;2022-10-31T12:07:22;20.30;99.90
1123;DHT22;548;48.778;9.252;2022-10-31T12:09:49;20.00;99.90
1123;DHT22;548;48.778;9.252;2022-10-31T12:12:35;19.90;99.90
1123;DHT22;548;48.778;9.252;2022-10-31T12:15:30;20.10;99.90
1123;DHT22;548;48.778;9.252;2022-10-31T12:18:29;19.90;99.90
1123;DHT22;548;48.778;9.252;2022-10-31T12:21:09;19.90;99.90
1123;DHT22;548;48.778;9.252;2022-10-31T12:23:47;20.20;99.90
1123;DHT22;548;48.778;9.252;2022-10-31T12:26:20;20.70;99.90
1123;DHT22;548;48.778;9.252;2022-10-31T12:29:01;21.20;99.90
1123;DHT22;548;48.778;9.252;2022-10-31T12:31:52;21.50;99.90
1123;DHT22;548;48.778;9.252;2022-10-31T12:34:54;21.50;99.90
1123;DHT22;548;48.778;9.252;2022-10-31T12:37:33;21.30;99.90
1123;DHT22;548;48.778;9.252;2022-10-31T12:40:20;21.20;99.90
1123;DHT22;548;48.778;9.252;2022-10-31T12:42:59;21.10;99.90
1123;DHT22;548;48.778;9.252;2022-10-31T12:45:41;20.70;99.90
1123;DHT22;548;48.778;9.252;2022-10-31T12:48:26;20.60;99.90
1123;DHT22;548;48.778;9.252;2022-10-31T12:51:00;20.20;99.90
1123;DHT22;548;48.778;9.252;2022-10-31T12:53:40;20.00;99.90
1123;DHT22;548;48.778;9.252;2022-10-31T12:56:23;19.80;99.90
1123;DHT22;548;48.778;9.252;2022-10-31T12:58:59;19.80;99.90
1123;DHT22;548;48.778;9.252;2022-10-31T13:01:30;20.00;99.90
1123;DHT22;548;48.778;9.252;2022-10-31T13:04:04;19.70;99.90
1123;DHT22;548;48.778;9.252;2022-10-31T13:06:35;19.50;99.90
1123;DHT22;548;48.778;9.252;2022-10-31T13:09:06;19.50;99.90
1123;DHT22;548;48.778;9.252;2022-10-31T13:11:38;19.50;99.90
1123;DHT22;548;48.778;9.252;2022-10-31T13:14:09;19.60;99.90
1123;DHT22;548;48.778;9.252;2022-10-31T13:16:40;19.70;99.90
1123;DHT22;548;48.778;9.252;2022-10-31T13:19:15;19.70;99.90
1123;DHT22;548;48.778;9.252;2022-10-31T13:21:51;19.70;99.90
1123;DHT22;548;48.778;9.252;2022-10-31T13:24:27;19.80;99.90
1123;DHT22;548;48.778;9.252;2022-10-31T13:26:58;19.90;99.90
1123;DHT22;548;48.778;9.252;2022-10-31T13:29:30;19.90;99.90
1123;DHT22;548;48.778;9.252;2022-10-31T13:31:59;19.70;99.90
1123;DHT22;548;48.778;9.252;2022-10-31T13:34:31;19.50;99.90
1123;DHT22;548;48.778;9.252;2022-10-31T13:37:05;19.40;99.90
1123;DHT22;548;48.778;9.252;2022-10-31T13:39:50;19.30;99.90
1123;DHT22;548;48.778;9.252;2022-10-31T13:42:38;19.30;99.90
1123;DHT22;548;48.778;9.252;2022-10-31T13:45:13;19.40;99.90
1123;DHT22;548;48.778;9.252;2022-10-31T13:47:41;19.60;99.90
1123;DHT22;548;48.778;9.252;2022-10-31T13:50:21;19.80;99.90
1123;DHT22;548;48.778;9.252;2022-10-31T13:52:48;20.10;99.90
1123;DHT22;548;48.778;9.252;2022-10-31T13:55:35;20.10;99.90
1123;DHT22;548;48.778;9.252;2022-10-31T13:58:04;20.30;99.90
1123;DHT22;548;48.778;9.252;2022-10-31T14:00:31;20.50;99.90
1123;DHT22;548;48.778;9.252;2022-10-31T14:03:00;20.40;99.90
1123;DHT22;548;48.778;9.252;2022-10-31T14:05:30;20.40;99.90
1123;DHT22;548;48.778;9.252;2022-10-31T14:07:59;20.50;99.90
1123;DHT22;548;48.778;9.252;2022-10-31T14:10:28;20.60;99.90
1123;DHT22;548;48.778;9.252;2022-10-31T14:13:04;20.60;99.90
1123;DHT22;548;48.778;9.252;2022-10-31T14:15:32;20.30;99.90
1123;DHT22;548;48.778;9.252;2022-10-31T14:18:00;20.30;99.90
1123;DHT22;548;48.778;9.252;2022-10-31T14:20:40;20.40;99.90
1123;DHT22;548;48.778;9.252;2022-10-31T14:23:33;20.50;99.90
1123;DHT22;548;48.778;9.252;2022-10-31T14:26:21;20.50;99.90
1123;DHT22;548;48.778;9.252;2022-10-31T14:28:57;20.40;99.90
1123;DHT22;548;48.778;9.252;2022-10-31T14:31:31;20.30;99.90
1123;DHT22;548;48.778;9.252;2022-10-31T14:34:01;20.20;99.90
1123;DHT22;548;48.778;9.252;2022-10-31T14:36:39;20.00;99.90
1123;DHT22;548;48.778;9.252;2022-10-31T14:39:11;20.00;99.90
1123;DHT22;548;48.778;9.252;2022-10-31T14:42:00;20.10;99.90
1123;DHT22;548;48.778;9.252;2022-10-31T14:45:01;20.10;99.90
1123;DHT22;548;48.778;9.252;2022-10-31T14:47:36;20.10;99.90
1123;DHT22;548;48.778;9.252;2022-10-31T14:50:23;20.00;99.90
1123;DHT22;548;48.778;9.252;2022-10-31T14:52:54;19.90;99.90
1123;DHT22;548;48.778;9.252;2022-10-31T14:55:23;19.70;99.90
1123;DHT22;548;48.778;9.252;2022-10-31T14:57:54;19.40;99.90
1123;DHT22;548;48.778;9.252;2022-10-31T15:00:23;19.30;99.90
1123;DHT22;548;48.778;9.252;2022-10-31T15:03:01;19.10;99.90
1123;DHT22;548;48.778;9.252;2022-10-31T15:05:30;19.00;99.90
1123;DHT22;548;48.778;9.252;2022-10-31T15:07:59;18.90;99.90
1123;DHT22;548;48.778;9.252;2022-10-31T15:10:27;19.00;99.90
1123;DHT22;548;48.778;9.252;2022-10-31T15:12:55;18.90;99.90
1123;DHT22;548;48.778;9.252;2022-10-31T15:15:23;18.90;99.90
1123;DHT22;548;48.778;9.252;2022-10-31T15:17:53;19.00;99.90
1123;DHT22;548;48.778;9.252;2022-10-31T15:20:22;19.10;99.90
1123;DHT22;548;48.778;9.252;2022-10-31T15:22:52;19.10;99.90
1123;DHT22;548;48.778;9.252;2022-10-31T15:25:23;19.00;99.90
1123;DHT22;548;48.778;9.252;2022-10-31T15:27:51;19.00;99.90
1123;DHT22;548;48.778;9.252;2022-10-31T15:30:20;18.80;99.90
1123;DHT22;548;48.778;9.252;2022-10-31T15:32:48;18.70;99.90
1123;DHT22;548;48.778;9.252;2022-10-31T15:35:21;18.60;99.90
1123;DHT22;548;48.778;9.252;2022-10-31T15:37:49;18.40;99.90
1123;DHT22;548;48.778;9.252;2022-10-31T15:40:18;18.30;99.90
1123;DHT22;548;48.778;9.252;2022-10-31T15:42:50;17.90;99.90
1123;DHT22;548;48.778;9.252;2022-10-31T15:45:21;17.70;99.90
1123;DHT22;548;48.778;9.252;2022-10-31T15:47:53;17.60;99.90
1123;DHT22;548;48.778;9.252;2022-10-31T15:50:23;17.40;99.90
1123;DHT22;548;48.778;9.252;2022-10-31T15:52:53;17.30;99.90
1123;DHT22;548;48.778;9.252;2022-10-31T15:55:21;17.10;99.90
1123;DHT22;548;48.778;9.252;2022-10-31T15:57:52;17.00;99.90
1123;DHT22;548;48.778;9.252;2022-10-31T16:00:24;16.80;99.90
1123;DHT22;548;48.778;9.252;2022-10-31T16:03:03;16.70;99.90
1123;DHT22;548;48.778;9.252;2022-10-31T16:05:36;16.60;99.90
1123;DHT22;548;48.778;9.252;2022-10-31T16:08:03;16.30;99.90
1123;DHT22;548;48.778;9.252;2022-10-31T16:10:33;16.00;99.90
1123;DHT22;548;48.778;9.252;2022-10-31T16:13:02;16.00;99.90
1123;DHT22;548;48.778;9.252;2022-10-31T16:15:29;16.00;99.90
1123;DHT22;548;48.778;9.252;2022-10-31T16:17:57;15.90;99.90
1123;DHT22;548;48.778;9.252;2022-10-31T16:20:26;15.80;99.90
1123;DHT22;548;48.778;9.252;2022-10-31T16:22:55;15.80;99.90
1123;DHT22;548;48.778;9.252;2022-10-31T16:25:26;15.70;99.90
1123;DHT22;548;48.778;9.252;2022-10-31T16:27:54;15.60;99.90
1123;DHT22;548;48.778;9.252;2022-10-31T16:30:31;15.50;99.90
1123;DHT22;548;48.778;9.252;2022-10-31T16:33:01;15.50;99.90
1123;DHT22;548;48.778;9.252;2022-10-31T16:35:32;15.40;99.90
1123;DHT22;548;48.778;9.252;2022-10-31T16:37:59;15.30;99.90
1123;DHT22;548;48.778;9.252;2022-10-31T16:40:26;15.20;99.90
1123;DHT22;548;48.778;9.252;2022-10-31T16:42:53;15.00;99.90
1123;DHT22;548;48.778;9.252;2022-10-31T16:45:21;14.90;99.90
1123;DHT22;548;48.778;9.252;2022-10-31T16:47:50;14.90;99.90
1123;DHT22;548;48.778;9.252;2022-10-31T16:50:19;14.80;99.90
1123;DHT22;548;48.778;9.252;2022-10-31T16:52:46;14.70;99.90
1123;DHT22;548;48.778;9.252;2022-10-31T16:55:14;14.70;99.90
1123;DHT22;548;48.778;9.252;2022-10-31T16:57:42;14.70;99.90
1123;DHT22;548;48.778;9.252;2022-10-31T17:00:13;14.70;99.90
1123;DHT22;548;48.778;9.252;2022-10-31T17:02:41;14.60;99.90
1123;DHT22;548;48.778;9.252;2022-10-31T17:05:12;14.60;99.90
1123;DHT22;548;48.778;9.252;2022-10-31T17:07:40;14.60;99.90
1123;DHT22;548;48.778;9.252;2022-10-31T17:10:07;14.70;99.90
1123;DHT22;548;48.778;9.252;2022-10-31T17:12:35;14.80;99.90
1123;DHT22;548;48.778;9.252;2022-10-31T17:15:03;14.80;99.90
1123;DHT22;548;48.778;9.252;2022-10-31T17:17:31;14.80;99.90
1123;DHT22;548;48.778;9.252;2022-10-31T17:19:58;14.80;99.90
1123;DHT22;548;48.778;9.252;2022-10-31T17:22:27;14.70;99.90
1123;DHT22;548;48.778;9.252;2022-10-31T17:24:53;14.70;99.90
1123;DHT22;548;48.778;9.252;2022-10-31T17:27:20;14.60;99.90
1123;DHT22;548;48.778;9.252;2022-10-31T17:29:47;14.50;99.90
1123;DHT22;548;48.778;9.252;2022-10-31T17:32:13;14.50;99.90
1123;DHT22;548;48.778;9.252;2022-10-31T17:34:41;14.40;99.90
1123;DHT22;548;48.778;9.252;2022-10-31T17:37:09;14.40;99.90
1123;DHT22;548;48.778;9.252;2022-10-31T17:39:38;14.40;99.90
1123;DHT22;548;48.778;9.252;2022-10-31T17:42:04;14.40;99.90
1123;DHT22;548;48.778;9.252;2022-10-31T17:44:31;14.30;99.90
1123;DHT22;548;48.778;9.252;2022-10-31T17:46:58;14.30;99.90
1123;DHT22;548;48.778;9.252;2022-10-31T17:49:25;14.30;99.90
1123;DHT22;548;48.778;9.252;2022-10-31T17:51:51;14.30;99.90
1123;DHT22;548;48.778;9.252;2022-10-31T17:54:18;14.20;99.90
1123;DHT22;548;48.778;9.252;2022-10-31T17:56:48;14.20;99.90
1123;DHT22;548;48.778;9.252;2022-10-31T17:59:15;14.20;99.90
1123;DHT22;548;48.778;9.252;2022-10-31T18:01:42;14.10;99.90
1123;DHT22;548;48.778;9.252;2022-10-31T18:04:09;14.00;99.90
1123;DHT22;548;48.778;9.252;2022-10-31T18:06:35;14.00;99.90
1123;DHT22;548;48.778;9.252;2022-10-31T18:09:03;14.00;99.90
1123;DHT22;548;48.778;9.252;2022-10-31T18:11:30;13.90;99.90
1123;DHT22;548;48.778;9.252;2022-10-31T18:13:59;13.90;99.90
1123;DHT22;548;48.778;9.252;2022-10-31T18:16:26;13.90;99.90
1123;DHT22;548;48.778;9.252;2022-10-31T18:18:54;13.90;99.90
1123;DHT22;548;48.778;9.252;2022-10-31T18:21:23;13.90;99.90
1123;DHT22;548;48.778;9.252;2022-10-31T18:23:53;13.90;99.90
1123;DHT22;548;48.778;9.252;2022-10-31T18:26:20;13.80;99.90
1123;DHT22;548;48.778;9.252;2022-10-31T18:28:47;13.70;99.90
1123;DHT22;548;48.778;9.252;2022-10-31T18:31:15;13.70;99.90
1123;DHT22;548;48.778;9.252;2022-10-31T18:33:42;13.70;99.90
1123;DHT22;548;48.778;9.252;2022-10-31T18:36:10;13.60;99.90
1123;DHT22;548;48.778;9.252;2022-10-31T18:38:38;13.60;99.90
1123;DHT22;548;48.778;9.252;2022-10-31T18:41:05;13.60;99.90
1123;DHT22;548;48.778;9.252;2022-10-31T18:43:32;13.50;99.90
1123;DHT22;548;48.778;9.252;2022-10-31T18:46:00;13.50;99.90
1123;DHT22;548;48.778;9.252;2022-10-31T18:48:29;13.50;99.90
1123;DHT22;548;48.778;9.252;2022-10-31T18:50:56;13.50;99.90
1123;DHT22;548;48.778;9.252;2022-10-31T18:53:23;13.40;99.90
1123;DHT22;548;48.778;9.252;2022-10-31T18:55:49;13.50;99.90
1123;DHT22;548;48.778;9.252;2022-10-31T18:58:16;13.50;99.90
1123;DHT22;548;48.778;9.252;2022-10-31T19:00:43;13.60;99.90
1123;DHT22;548;48.778;9.252;2022-10-31T19:03:10;13.60;99.90
1123;DHT22;548;48.778;9.252;2022-10-31T19:05:38;13.60;99.90
1123;DHT22;548;48.778;9.252;2022-10-31T19:08:05;13.60;99.90
1123;DHT22;548;48.778;9.252;2022-10-31T19:10:33;13.70;99.90
1123;DHT22;548;48.778;9.252;2022-10-31T19:13:00;13.70;99.90
1123;DHT22;548;48.778;9.252;2022-10-31T19:15:26;13.70;99.90
1123;DHT22;548;48.778;9.252;2022-10-31T19:17:53;13.80;99.90
1123;DHT22;548;48.778;9.252;2022-10-31T19:20:20;13.80;99.90
1123;DHT22;548;48.778;9.252;2022-10-31T19:22:48;13.80;99.90
1123;DHT22;548;48.778;9.252;2022-10-31T19:25:15;13.80;99.90
1123;DHT22;548;48.778;9.252;2022-10-31T19:27:42;13.80;99.90
1123;DHT22;548;48.778;9.252;2022-10-31T19:30:10;13.80;99.90
1123;DHT22;548;48.778;9.252;2022-10-31T19:32:37;13.80;99.90
1123;DHT22;548;48.778;9.252;2022-10-31T19:35:05;13.80;99.90
1123;DHT22;548;48.778;9.252;2022-10-31T19:37:33;13.80;99.90